createdAt,value
2022-07-28T00:01:14.112Z,5.47
2022-07-28T00:03:46.153Z,5.18
2022-07-28T00:06:14.099Z,5.00
2022-07-28T00:08:42.161Z,5.19
2022-07-28T00:11:10.180Z,5.17
2022-07-28T00:13:38.144Z,5.22
2022-07-28T00:16:07.595Z,5.36
2022-07-28T00:18:35.561Z,5.79
2022-07-28T00:21:04.408Z,6.38
2022-07-28T00:23:39.287Z,6.69
2022-07-28T00:26:09.177Z,6.91
2022-07-28T00:28:37.314Z,6.80
2022-07-28T00:31:08.055Z,6.35
2022-07-28T00:33:37.714Z,5.88
2022-07-28T00:36:07.187Z,5.98
2022-07-28T00:38:40.932Z,5.77
2022-07-28T00:41:13.447Z,5.29
2022-07-28T00:43:45.178Z,5.16
2022-07-28T00:46:14.986Z,5.19
2022-07-28T00:48:46.051Z,5.25
2022-07-28T00:51:16.354Z,5.18
2022-07-28T00:53:45.412Z,5.13
2022-07-28T00:56:14.171Z,5.03
2022-07-28T00:58:42.586Z,5.18
2022-07-28T01:01:12.161Z,4.86
2022-07-28T01:03:43.368Z,5.21
2022-07-28T01:06:17.622Z,5.26
2022-07-28T01:09:12.647Z,5.14
2022-07-28T01:11:59.251Z,4.91
2022-07-28T01:14:50.324Z,4.93
2022-07-28T01:17:40.301Z,4.94
2022-07-28T01:20:08.513Z,4.89
2022-07-28T01:23:08.786Z,5.08
2022-07-28T01:25:39.731Z,5.09
2022-07-28T01:28:27.249Z,5.22
2022-07-28T01:30:58.201Z,4.93
2022-07-28T01:33:37.325Z,4.96
2022-07-28T01:36:16.868Z,5.00
2022-07-28T01:38:47.634Z,5.23
2022-07-28T01:41:20.046Z,5.02
2022-07-28T01:44:09.577Z,5.29
2022-07-28T01:46:38.486Z,4.92
2022-07-28T01:49:09.226Z,4.86
2022-07-28T01:51:38.443Z,4.84
2022-07-28T01:54:08.521Z,5.04
2022-07-28T01:56:39.302Z,4.55
2022-07-28T01:59:09.881Z,4.87
2022-07-28T02:01:43.418Z,4.94
2022-07-28T02:04:14.859Z,4.80
2022-07-28T02:06:44.016Z,4.73
2022-07-28T02:09:13.745Z,4.34
2022-07-28T02:11:43.144Z,4.28
2022-07-28T02:14:23.600Z,4.50
2022-07-28T02:17:07.905Z,4.13
2022-07-28T02:19:37.795Z,4.11
2022-07-28T02:22:07.199Z,4.13
2022-07-28T02:24:36.235Z,4.15
2022-07-28T02:27:29.060Z,4.39
2022-07-28T02:30:13.144Z,4.33
2022-07-28T02:32:50.276Z,3.95
2022-07-28T02:35:39.196Z,4.29
2022-07-28T02:38:12.656Z,4.18
2022-07-28T02:40:43.295Z,4.31
2022-07-28T02:43:15.167Z,4.10
2022-07-28T02:45:46.377Z,3.97
2022-07-28T02:48:19.388Z,3.84
2022-07-28T02:50:48.197Z,3.97
2022-07-28T02:53:17.387Z,3.81
2022-07-28T02:55:48.236Z,3.92
2022-07-28T02:58:19.464Z,3.94
2022-07-28T03:00:49.445Z,3.97
2022-07-28T03:03:18.151Z,3.66
2022-07-28T03:05:46.909Z,3.69
2022-07-28T03:08:16.754Z,3.77
2022-07-28T03:10:44.792Z,3.94
2022-07-28T03:13:13.381Z,3.66
2022-07-28T03:15:41.507Z,3.89
2022-07-28T03:18:09.500Z,3.74
2022-07-28T03:20:37.508Z,3.83
2022-07-28T03:23:05.667Z,3.79
2022-07-28T03:25:46.041Z,3.62
2022-07-28T03:28:19.636Z,3.67
2022-07-28T03:31:10.501Z,3.60
2022-07-28T03:33:38.912Z,3.75
2022-07-28T03:36:12.743Z,3.71
2022-07-28T03:38:54.004Z,4.07
2022-07-28T03:41:23.272Z,3.81
2022-07-28T03:43:52.580Z,3.69
2022-07-28T03:46:21.572Z,3.81
2022-07-28T03:48:49.701Z,3.49
2022-07-28T03:51:17.705Z,3.94
2022-07-28T03:53:47.251Z,3.90
2022-07-28T03:56:15.436Z,3.81
2022-07-28T03:58:43.358Z,3.74
2022-07-28T04:01:11.322Z,3.91
2022-07-28T04:03:43.999Z,4.68
2022-07-28T04:06:12.983Z,4.62
2022-07-28T04:08:43.200Z,5.03
2022-07-28T04:11:11.159Z,3.54
2022-07-28T04:13:39.487Z,3.36
2022-07-28T04:16:07.695Z,3.79
2022-07-28T04:18:35.750Z,3.89
2022-07-28T04:21:04.698Z,3.58
2022-07-28T04:23:32.709Z,3.95
2022-07-28T04:26:00.692Z,3.88
2022-07-28T04:28:28.588Z,3.69
2022-07-28T04:30:56.607Z,3.88
2022-07-28T04:33:24.935Z,3.88
2022-07-28T04:35:53.281Z,3.80
2022-07-28T04:38:21.299Z,3.92
2022-07-28T04:40:49.738Z,4.32
2022-07-28T04:43:18.037Z,3.92
2022-07-28T04:45:54.095Z,3.84
2022-07-28T04:48:23.935Z,3.88
2022-07-28T04:50:53.209Z,4.52
2022-07-28T04:53:22.598Z,4.55
2022-07-28T04:55:53.669Z,4.87
2022-07-28T04:58:24.138Z,3.98
2022-07-28T05:00:52.730Z,3.98
2022-07-28T05:03:21.160Z,4.10
2022-07-28T05:05:54.359Z,4.08
2022-07-28T05:08:25.801Z,3.91
2022-07-28T05:10:55.882Z,4.14
2022-07-28T05:13:25.343Z,4.52
2022-07-28T05:15:55.859Z,4.48
2022-07-28T05:18:23.776Z,4.38
2022-07-28T05:20:51.700Z,4.29
2022-07-28T05:23:19.619Z,4.48
2022-07-28T05:25:47.763Z,4.55
2022-07-28T05:28:15.700Z,4.35
2022-07-28T05:30:45.297Z,4.39
2022-07-28T05:33:15.522Z,4.07
2022-07-28T05:35:44.890Z,4.07
2022-07-28T05:38:13.186Z,4.88
2022-07-28T05:40:41.181Z,4.66
2022-07-28T05:43:09.219Z,4.44
2022-07-28T05:45:37.185Z,4.16
2022-07-28T05:48:05.615Z,3.88
2022-07-28T05:50:33.793Z,4.36
2022-07-28T05:53:01.768Z,4.75
2022-07-28T05:55:29.782Z,4.40
2022-07-28T05:57:58.870Z,4.17
2022-07-28T06:00:27.254Z,4.52
2022-07-28T06:02:55.354Z,4.27
2022-07-28T06:05:23.689Z,4.25
2022-07-28T06:07:51.861Z,4.29
2022-07-28T06:10:22.246Z,4.18
2022-07-28T06:12:52.558Z,4.21
2022-07-28T06:15:27.747Z,4.59
2022-07-28T06:17:56.114Z,4.54
2022-07-28T06:20:25.920Z,4.37
2022-07-28T06:22:55.458Z,4.42
2022-07-28T06:25:28.983Z,4.08
2022-07-28T06:27:58.897Z,5.66
2022-07-28T06:30:27.673Z,5.78
2022-07-28T06:32:57.072Z,6.07
2022-07-28T06:35:25.346Z,5.80
2022-07-28T06:37:53.884Z,6.52
2022-07-28T06:40:23.142Z,7.10
2022-07-28T06:42:51.849Z,5.69
2022-07-28T06:45:21.611Z,4.53
2022-07-28T06:47:51.280Z,4.68
2022-07-28T06:50:25.586Z,5.48
2022-07-28T06:52:59.195Z,5.81
2022-07-28T06:55:34.638Z,5.93
2022-07-28T06:58:04.334Z,5.55
2022-07-28T07:00:32.557Z,5.72
2022-07-28T07:03:01.189Z,6.70
2022-07-28T07:05:32.069Z,6.71
2022-07-28T07:08:00.823Z,6.93
2022-07-28T07:10:29.094Z,6.54
2022-07-28T07:12:57.032Z,6.94
2022-07-28T07:15:25.110Z,7.09
2022-07-28T07:17:54.216Z,6.60
2022-07-28T07:20:22.180Z,6.11
2022-07-28T07:22:50.251Z,5.29
2022-07-28T07:25:19.204Z,5.67
2022-07-28T07:27:47.541Z,5.96
2022-07-28T07:30:16.695Z,5.26
2022-07-28T07:32:45.431Z,5.15
2022-07-28T07:35:13.451Z,4.27
2022-07-28T07:37:41.832Z,4.38
2022-07-28T07:40:10.187Z,5.12
2022-07-28T07:42:38.695Z,5.43
2022-07-28T07:45:07.197Z,5.25
2022-07-28T07:47:35.211Z,5.47
2022-07-28T07:50:04.519Z,5.98
2022-07-28T07:52:32.799Z,6.40
2022-07-28T07:55:01.107Z,5.80
2022-07-28T07:57:29.830Z,5.54
2022-07-28T07:59:57.872Z,5.30
2022-07-28T08:02:25.872Z,5.16
2022-07-28T08:04:55.729Z,5.17
2022-07-28T08:07:23.823Z,6.03
2022-07-28T08:09:51.815Z,6.71
2022-07-28T08:12:24.834Z,6.37
2022-07-28T08:14:54.541Z,5.67
2022-07-28T08:17:25.809Z,7.20
2022-07-28T08:19:54.918Z,6.69
2022-07-28T08:22:23.239Z,7.05
2022-07-28T08:24:52.080Z,7.32
2022-07-28T08:27:20.259Z,6.29
2022-07-28T08:29:48.211Z,5.99
2022-07-28T08:32:16.229Z,7.70
2022-07-28T08:34:44.345Z,12.48
2022-07-28T08:37:12.367Z,17.70
2022-07-28T08:39:40.373Z,9.53
2022-07-28T08:42:39.378Z,8.07
2022-07-28T08:45:07.758Z,6.68
2022-07-28T08:47:45.975Z,6.49
2022-07-28T08:50:24.552Z,6.04
2022-07-28T08:52:54.073Z,5.40
2022-07-28T08:55:31.817Z,5.13
2022-07-28T08:58:00.760Z,5.28
2022-07-28T09:00:29.125Z,5.50
2022-07-28T09:02:58.123Z,5.58
2022-07-28T09:05:26.223Z,5.23
2022-07-28T09:07:55.666Z,6.92
2022-07-28T09:10:23.972Z,7.80
2022-07-28T09:12:52.037Z,6.78
2022-07-28T09:15:20.110Z,5.88
2022-07-28T09:17:48.012Z,5.62
2022-07-28T09:20:16.576Z,5.62
2022-07-28T09:23:01.503Z,5.91
2022-07-28T09:25:30.373Z,5.71
2022-07-28T09:28:14.475Z,5.10
2022-07-28T09:30:52.442Z,4.73
2022-07-28T09:33:41.801Z,4.99
2022-07-28T09:36:16.336Z,7.09
2022-07-28T09:38:45.031Z,6.13
2022-07-28T09:41:13.534Z,6.96
2022-07-28T09:43:47.006Z,8.18
2022-07-28T09:46:20.745Z,6.70
2022-07-28T09:48:49.096Z,5.73
2022-07-28T09:51:20.804Z,5.29
2022-07-28T09:53:48.890Z,5.23
2022-07-28T09:56:17.208Z,5.24
2022-07-28T09:58:57.298Z,9.41
2022-07-28T10:01:29.227Z,5.25
2022-07-28T10:04:05.117Z,4.97
2022-07-28T10:06:34.555Z,5.11
2022-07-28T10:09:07.886Z,5.29
2022-07-28T10:11:41.499Z,4.89
2022-07-28T10:14:09.878Z,6.48
2022-07-28T10:16:44.359Z,8.59
2022-07-28T10:19:12.400Z,8.07
2022-07-28T10:21:45.650Z,5.69
2022-07-28T10:24:23.356Z,5.16
2022-07-28T10:26:52.726Z,5.13
2022-07-28T10:29:21.872Z,9.32
2022-07-28T10:31:58.939Z,4.92
2022-07-28T10:34:33.201Z,5.06
2022-07-28T10:37:03.914Z,4.82
2022-07-28T10:39:41.364Z,4.99
2022-07-28T10:42:11.907Z,5.12
2022-07-28T10:44:41.694Z,11.70
2022-07-28T10:47:10.058Z,5.28
2022-07-28T10:49:48.893Z,4.37
2022-07-28T10:52:45.787Z,4.55
2022-07-28T10:55:31.864Z,5.19
2022-07-28T10:58:14.940Z,5.66
2022-07-28T11:01:05.482Z,4.92
2022-07-28T11:03:43.847Z,4.63
2022-07-28T11:06:26.772Z,5.92
2022-07-28T11:08:56.295Z,5.91
2022-07-28T11:12:02.757Z,9.54
2022-07-28T11:14:37.148Z,7.75
2022-07-28T11:17:05.819Z,5.11
2022-07-28T11:20:24.677Z,8.97
2022-07-28T11:22:34.209Z,6.30
2022-07-28T11:25:19.971Z,5.50
2022-07-28T11:27:54.487Z,5.55
2022-07-28T11:30:32.196Z,6.09
2022-07-28T11:33:01.770Z,8.15
2022-07-28T11:35:31.258Z,6.66
2022-07-28T11:38:02.903Z,5.33
2022-07-28T11:40:33.983Z,5.52
2022-07-28T11:43:22.026Z,5.03
2022-07-28T11:46:14.288Z,5.96
2022-07-28T11:48:47.443Z,5.75
2022-07-28T11:51:15.959Z,5.90
2022-07-28T11:53:49.706Z,5.48
2022-07-28T11:56:31.602Z,5.45
2022-07-28T11:59:02.046Z,5.19
2022-07-28T12:01:38.314Z,4.85
2022-07-28T12:04:16.123Z,5.36
2022-07-28T12:06:51.182Z,6.25
2022-07-28T12:09:25.609Z,5.15
2022-07-28T12:11:55.825Z,4.91
2022-07-28T12:14:24.158Z,4.58
2022-07-28T12:16:53.279Z,5.02
2022-07-28T12:19:21.597Z,5.21
2022-07-28T12:21:55.501Z,5.35
2022-07-28T12:24:44.836Z,5.43
2022-07-28T12:27:15.425Z,6.42
2022-07-28T12:29:58.830Z,5.96
2022-07-28T12:32:38.093Z,5.35
2022-07-28T12:35:06.723Z,5.08
2022-07-28T12:37:34.824Z,4.82
2022-07-28T12:40:03.039Z,5.04
2022-07-28T12:42:32.322Z,5.01
2022-07-28T12:45:04.700Z,4.83
2022-07-28T12:47:32.834Z,5.99
2022-07-28T12:50:14.078Z,5.58
2022-07-28T12:52:44.156Z,5.16
2022-07-28T12:55:30.972Z,5.46
2022-07-28T12:57:59.723Z,7.09
2022-07-28T13:00:31.613Z,5.34
2022-07-28T13:03:03.314Z,5.60
2022-07-28T13:05:56.515Z,5.56
2022-07-28T13:08:27.642Z,5.13
2022-07-28T13:10:58.974Z,5.36
2022-07-28T13:13:27.377Z,6.58
2022-07-28T13:16:12.404Z,7.77
2022-07-28T13:18:41.543Z,5.31
2022-07-28T13:21:09.665Z,5.08
2022-07-28T13:23:38.411Z,5.20
2022-07-28T13:26:07.636Z,5.22
2022-07-28T13:28:35.751Z,5.16
2022-07-28T13:31:03.761Z,5.89
2022-07-28T13:33:31.754Z,6.23
2022-07-28T13:36:00.611Z,5.43
2022-07-28T13:38:28.616Z,5.69
2022-07-28T13:40:57.807Z,5.10
2022-07-28T13:43:36.400Z,5.29
2022-07-28T13:46:05.399Z,5.04
2022-07-28T13:48:35.940Z,5.35
2022-07-28T13:51:04.111Z,6.33
2022-07-28T13:53:33.360Z,5.84
2022-07-28T13:56:02.717Z,5.68
2022-07-28T13:58:30.728Z,5.64
2022-07-28T14:01:00.347Z,5.63
2022-07-28T14:03:29.369Z,6.45
2022-07-28T14:06:17.229Z,5.49
2022-07-28T14:08:45.199Z,5.42
2022-07-28T14:11:16.182Z,5.37
2022-07-28T14:13:44.178Z,7.91
2022-07-28T14:16:14.330Z,6.28
2022-07-28T14:18:42.686Z,6.32
2022-07-28T14:21:10.630Z,6.07
2022-07-28T14:23:38.935Z,6.09
2022-07-28T14:26:34.542Z,5.51
2022-07-28T14:28:55.570Z,5.29
2022-07-28T14:31:23.527Z,5.55
2022-07-28T14:33:54.657Z,5.59
2022-07-28T14:36:24.159Z,5.72
2022-07-28T14:38:53.954Z,6.03
2022-07-28T14:41:23.360Z,6.06
2022-07-28T14:43:51.993Z,6.03
2022-07-28T14:46:21.829Z,5.54
2022-07-28T14:48:50.202Z,5.92
2022-07-28T14:51:18.250Z,6.28
2022-07-28T14:53:51.793Z,7.02
2022-07-28T14:56:20.253Z,6.86
2022-07-28T14:58:48.210Z,6.32
2022-07-28T15:01:16.297Z,6.10
2022-07-28T15:03:44.206Z,5.52
2022-07-28T15:06:12.164Z,5.81
2022-07-28T15:08:40.100Z,5.50
2022-07-28T15:11:08.036Z,6.17
2022-07-28T15:13:36.074Z,5.74
2022-07-28T15:16:04.342Z,5.85
2022-07-28T15:18:32.413Z,6.45
2022-07-28T15:21:00.365Z,5.87
2022-07-28T15:23:28.331Z,6.96
2022-07-28T15:25:56.333Z,12.19
2022-07-28T15:28:24.367Z,10.24
2022-07-28T15:30:52.830Z,15.05
2022-07-28T15:33:21.279Z,30.30
2022-07-28T15:35:58.784Z,9.07
2022-07-28T15:38:29.103Z,12.94
2022-07-28T15:41:00.526Z,19.79
2022-07-28T15:43:30.307Z,41.28
2022-07-28T15:45:59.116Z,13.11
2022-07-28T15:48:27.090Z,6.85
2022-07-28T15:50:55.470Z,6.94
2022-07-28T15:53:25.062Z,11.51
2022-07-28T15:55:53.362Z,8.34
2022-07-28T15:58:22.260Z,6.23
2022-07-28T16:00:50.922Z,8.33
2022-07-28T16:03:19.473Z,5.86
2022-07-28T16:05:49.601Z,6.47
2022-07-28T16:08:22.512Z,7.94
2022-07-28T16:10:52.933Z,7.22
2022-07-28T16:13:35.894Z,10.73
2022-07-28T16:16:10.745Z,12.58
2022-07-28T16:18:42.111Z,8.53
2022-07-28T16:21:10.941Z,9.18
2022-07-28T16:23:38.894Z,7.42
2022-07-28T16:26:09.112Z,6.58
2022-07-28T16:28:37.192Z,6.22
2022-07-28T16:31:05.716Z,7.48
2022-07-28T16:33:34.693Z,8.40
2022-07-28T16:36:03.157Z,7.48
2022-07-28T16:38:31.049Z,6.41
2022-07-28T16:40:59.082Z,6.49
2022-07-28T16:43:27.012Z,6.22
2022-07-28T16:45:55.180Z,6.20
2022-07-28T16:48:23.219Z,6.53
2022-07-28T16:50:52.081Z,6.75
2022-07-28T16:53:20.014Z,8.49
2022-07-28T16:55:48.256Z,7.36
2022-07-28T16:58:18.043Z,7.15
2022-07-28T17:00:46.141Z,17.95
2022-07-28T17:03:14.119Z,27.08
2022-07-28T17:05:42.114Z,8.27
2022-07-28T17:08:10.348Z,7.53
2022-07-28T17:10:38.464Z,6.69
2022-07-28T17:13:06.548Z,8.21
2022-07-28T17:15:34.698Z,7.51
2022-07-28T17:18:02.865Z,8.89
2022-07-28T17:20:30.810Z,6.84
2022-07-28T17:22:58.868Z,6.10
2022-07-28T17:28:14.865Z,7.88
2022-07-28T17:30:43.110Z,7.14
2022-07-28T17:33:11.806Z,7.35
2022-07-28T17:35:40.195Z,6.63
2022-07-28T17:38:09.470Z,6.91
2022-07-28T17:40:39.584Z,6.44
2022-07-28T17:43:08.783Z,8.01
2022-07-28T17:45:36.831Z,7.97
2022-07-28T17:48:05.141Z,7.48
2022-07-28T17:50:33.158Z,7.01
2022-07-28T17:53:02.660Z,6.53
2022-07-28T17:55:57.573Z,8.94
2022-07-28T17:58:31.079Z,10.00
2022-07-28T18:01:11.216Z,11.53
2022-07-28T18:03:58.238Z,9.71
2022-07-28T18:06:34.948Z,10.03
2022-07-28T18:09:08.218Z,14.70
2022-07-28T18:11:55.967Z,11.06
2022-07-28T18:14:27.810Z,11.23
2022-07-28T18:16:56.121Z,9.48
2022-07-28T18:19:24.222Z,8.37
2022-07-28T18:21:52.271Z,10.62
2022-07-28T18:24:22.202Z,10.92
2022-07-28T18:26:51.855Z,11.64
2022-07-28T18:29:21.445Z,9.75
2022-07-28T18:31:53.293Z,9.25
2022-07-28T18:34:24.667Z,9.34
2022-07-28T18:36:53.992Z,7.83
2022-07-28T18:39:22.144Z,7.16
2022-07-28T18:41:50.266Z,6.72
2022-07-28T18:44:19.283Z,6.68
2022-07-28T18:46:48.388Z,6.84
2022-07-28T18:49:16.566Z,7.12
2022-07-28T18:51:45.669Z,6.60
2022-07-28T18:54:27.021Z,6.84
2022-07-28T18:56:56.568Z,6.59
2022-07-28T18:59:25.183Z,6.53
2022-07-28T19:01:53.196Z,6.92
2022-07-28T19:04:21.815Z,6.72
2022-07-28T19:06:49.962Z,6.83
2022-07-28T19:09:18.263Z,7.06
2022-07-28T19:11:46.773Z,6.43
2022-07-28T19:14:16.434Z,7.51
2022-07-28T19:16:44.648Z,8.46
2022-07-28T19:19:13.416Z,7.21
2022-07-28T19:21:43.256Z,7.26
2022-07-28T19:24:16.067Z,9.51
2022-07-28T19:26:45.809Z,9.98
2022-07-28T19:29:14.059Z,7.83
2022-07-28T19:31:42.396Z,6.83
2022-07-28T19:34:10.748Z,6.65
2022-07-28T19:36:41.443Z,6.72
2022-07-28T19:39:09.776Z,6.38
2022-07-28T19:41:38.252Z,6.40
2022-07-28T19:44:06.452Z,6.33
2022-07-28T19:46:34.533Z,5.96
2022-07-28T19:49:02.831Z,6.01
2022-07-28T19:51:30.817Z,6.62
2022-07-28T19:53:59.611Z,6.37
2022-07-28T19:56:31.480Z,6.21
2022-07-28T19:59:00.324Z,6.46
2022-07-28T20:01:29.685Z,5.94
2022-07-28T20:04:00.906Z,6.24
2022-07-28T20:06:33.387Z,6.20
2022-07-28T20:09:02.095Z,6.64
2022-07-28T20:11:30.234Z,6.42
2022-07-28T20:13:58.436Z,6.48
2022-07-28T20:16:26.734Z,6.65
2022-07-28T20:18:54.916Z,6.60
2022-07-28T20:21:24.168Z,6.93
2022-07-28T20:23:57.276Z,8.53
2022-07-28T20:26:26.327Z,6.84
2022-07-28T20:28:56.463Z,6.43
2022-07-28T20:31:24.824Z,7.34
2022-07-28T20:33:53.013Z,6.68
2022-07-28T20:36:22.266Z,6.57
2022-07-28T20:38:51.918Z,6.48
2022-07-28T20:41:19.855Z,6.30
2022-07-28T20:44:05.076Z,6.56
2022-07-28T20:46:35.839Z,6.23
2022-07-28T20:49:03.914Z,6.29
2022-07-28T20:51:31.919Z,6.19
2022-07-28T20:53:59.906Z,6.53
2022-07-28T20:56:27.896Z,6.31
2022-07-28T20:58:58.682Z,6.55
2022-07-28T21:01:31.393Z,5.83
2022-07-28T21:03:59.383Z,6.27
2022-07-28T21:06:27.990Z,6.49
2022-07-28T21:08:59.906Z,6.16
2022-07-28T21:11:28.954Z,6.17
2022-07-28T21:14:04.516Z,6.38
2022-07-28T21:16:32.525Z,6.14
2022-07-28T21:19:02.087Z,6.14
2022-07-28T21:21:30.164Z,6.06
2022-07-28T21:23:58.114Z,5.93
2022-07-28T21:26:26.073Z,6.07
2022-07-28T21:29:12.658Z,5.71
2022-07-28T21:32:04.170Z,6.03
2022-07-28T21:34:34.659Z,5.84
2022-07-28T21:37:04.801Z,5.79
2022-07-28T21:39:34.194Z,5.99
2022-07-28T21:42:05.669Z,5.56
2022-07-28T21:44:36.044Z,5.73
2022-07-28T21:47:04.682Z,5.76
2022-07-28T21:49:32.849Z,5.35
2022-07-28T21:52:00.875Z,5.66
2022-07-28T21:54:28.972Z,5.70
2022-07-28T21:56:57.097Z,5.87
2022-07-28T21:59:25.284Z,6.14
2022-07-28T22:01:53.384Z,5.83
2022-07-28T22:04:21.742Z,5.39
2022-07-28T22:06:49.925Z,5.55
2022-07-28T22:09:18.007Z,5.84
2022-07-28T22:11:46.046Z,5.77
2022-07-28T22:14:14.397Z,5.01
2022-07-28T22:16:42.718Z,5.64
2022-07-28T22:19:12.156Z,5.48
2022-07-28T22:21:40.172Z,5.63
2022-07-28T22:24:08.541Z,5.47
2022-07-28T22:26:36.569Z,5.34
2022-07-28T22:29:04.587Z,5.49
2022-07-28T22:31:32.679Z,5.46
2022-07-28T22:34:00.702Z,5.75
2022-07-28T22:36:28.697Z,5.31
2022-07-28T22:38:56.754Z,5.40
2022-07-28T22:41:24.699Z,5.40
2022-07-28T22:43:54.448Z,5.38
2022-07-28T22:46:22.511Z,5.45
2022-07-28T22:48:50.525Z,5.58
2022-07-28T22:51:18.576Z,5.61
2022-07-28T22:53:46.559Z,5.76
2022-07-28T22:56:14.604Z,6.02
2022-07-28T22:58:42.622Z,5.48
2022-07-28T23:01:10.744Z,5.55
2022-07-28T23:03:38.859Z,5.69
2022-07-28T23:06:06.894Z,5.55
2022-07-28T23:08:34.855Z,5.83
2022-07-28T23:11:02.891Z,5.62
2022-07-28T23:13:30.883Z,5.53
2022-07-28T23:15:59.084Z,5.82
2022-07-28T23:18:27.140Z,5.90
2022-07-28T23:20:55.193Z,5.96
2022-07-28T23:23:23.134Z,5.66
2022-07-28T23:25:51.187Z,5.56
2022-07-28T23:28:19.151Z,6.12
2022-07-28T23:30:48.174Z,6.07
2022-07-28T23:33:54.999Z,6.78
2022-07-28T23:36:09.670Z,6.47
2022-07-28T23:38:44.942Z,7.03
2022-07-28T23:41:16.217Z,7.61
2022-07-28T23:43:44.505Z,7.35
2022-07-28T23:46:12.490Z,7.47
2022-07-28T23:48:40.644Z,7.47
2022-07-28T23:51:08.662Z,7.54
2022-07-28T23:53:37.759Z,5.99
2022-07-28T23:56:06.281Z,5.98
2022-07-28T23:58:34.630Z,5.66
